createdAt,value
2023-04-08T00:30:03.657Z,4.7
2023-04-08T01:00:19.749Z,4.6
2023-04-08T01:30:20.416Z,4.9
2023-04-08T02:00:20.541Z,4.7
2023-04-08T02:30:12.009Z,4.8
2023-04-08T03:00:04.093Z,4.6
2023-04-08T03:30:27.589Z,5.1
2023-04-08T04:00:28.698Z,4.7
2023-04-08T04:30:13.836Z,4.9
2023-04-08T05:00:10.012Z,4.9
2023-04-08T05:30:24.758Z,5
2023-04-08T06:00:17.000Z,4.9
2023-04-08T06:30:02.908Z,5.3
2023-04-08T07:00:17.694Z,5.6
2023-04-08T07:30:03.531Z,6.6
2023-04-08T08:00:10.034Z,7.5
2023-04-08T08:30:11.136Z,7.7
2023-04-08T09:00:12.535Z,7.7
2023-04-08T09:30:22.457Z,8.4
2023-04-08T10:00:22.809Z,9.2
2023-04-08T10:30:14.341Z,9.2
2023-04-08T11:00:29.265Z,10.1
2023-04-08T11:30:22.018Z,10.1
2023-04-08T12:00:22.393Z,8.7
2023-04-08T12:30:07.191Z,8.3
2023-04-08T13:00:15.704Z,7.7
2023-04-08T13:30:14.938Z,8.4
2023-04-08T14:30:03.335Z,10.4
2023-04-08T15:00:18.244Z,9.8
2023-04-08T15:30:11.874Z,9.2
2023-04-08T16:00:11.155Z,9.1
2023-04-08T16:30:26.245Z,9.6
2023-04-08T17:00:19.787Z,9.3
2023-04-08T17:30:18.604Z,8.7
2023-04-08T18:00:13.076Z,8.4
2023-04-08T18:30:04.662Z,7.7
2023-04-08T19:00:30.521Z,7.5
2023-04-08T19:30:30.360Z,7.3
2023-04-08T20:00:15.681Z,7.3
2023-04-08T20:30:07.709Z,7.1
2023-04-08T21:00:07.865Z,6.7
2023-04-08T21:30:15.742Z,6.6
2023-04-08T22:00:00.596Z,6.3
2023-04-08T22:30:16.428Z,6
2023-04-08T23:00:17.018Z,5.7
